createdAt,value
2023-05-24T00:00:56.837Z,100.00
2023-05-24T00:06:00.993Z,100.00
2023-05-24T00:11:04.959Z,100.00
2023-05-24T00:16:10.307Z,100.00
2023-05-24T00:21:15.106Z,100.00
2023-05-24T00:26:19.256Z,100.00
2023-05-24T00:31:31.704Z,100.00
2023-05-24T00:36:38.456Z,100.00
2023-05-24T00:41:42.491Z,100.00
2023-05-24T00:46:49.006Z,100.00
2023-05-24T00:51:54.624Z,100.00
2023-05-24T00:56:58.932Z,100.00
2023-05-24T01:02:07.605Z,100.00
2023-05-24T01:07:22.866Z,100.00
2023-05-24T01:12:34.287Z,100.00
2023-05-24T01:17:50.481Z,100.00
2023-05-24T01:23:08.851Z,100.00
2023-05-24T01:28:14.818Z,100.00
2023-05-24T01:33:18.842Z,100.00
2023-05-24T01:38:22.770Z,100.00
2023-05-24T01:43:34.878Z,100.00
2023-05-24T01:48:50.253Z,100.00
2023-05-24T01:53:58.445Z,100.00
2023-05-24T01:59:04.490Z,100.00
2023-05-24T02:04:08.619Z,100.00
2023-05-24T02:09:12.707Z,100.00
2023-05-24T02:14:20.113Z,100.00
2023-05-24T02:19:24.371Z,100.00
2023-05-24T02:24:28.331Z,100.00
2023-05-24T02:29:33.683Z,100.00
2023-05-24T02:34:37.738Z,100.00
2023-05-24T02:39:42.751Z,100.00
2023-05-24T02:44:49.657Z,100.00
2023-05-24T02:49:53.904Z,100.00
2023-05-24T02:54:58.017Z,100.00
2023-05-24T03:00:04.404Z,100.00
2023-05-24T03:05:10.143Z,100.00
2023-05-24T03:10:15.932Z,100.00
2023-05-24T03:15:23.745Z,100.00
2023-05-24T03:28:52.703Z,100.00
2023-05-24T03:34:00.232Z,100.00
2023-05-24T03:39:06.321Z,100.00
2023-05-24T03:44:19.307Z,100.00
2023-05-24T03:49:24.679Z,100.00
2023-05-24T03:54:28.639Z,100.00
2023-05-24T03:59:32.541Z,100.00
2023-05-24T04:04:38.125Z,100.00
2023-05-24T04:09:42.133Z,100.00
2023-05-24T04:14:46.353Z,100.00
2023-05-24T04:19:51.763Z,100.00
2023-05-24T04:24:55.753Z,100.00
2023-05-24T04:29:59.923Z,100.00
2023-05-24T04:35:05.898Z,100.00
2023-05-24T04:40:11.589Z,100.00
2023-05-24T04:45:15.928Z,100.00
2023-05-24T04:50:21.237Z,100.00
2023-05-24T04:55:25.242Z,100.00
2023-05-24T05:00:30.241Z,100.00
2023-05-24T05:05:35.680Z,100.00
2023-05-24T05:10:39.705Z,100.00
2023-05-24T05:15:44.642Z,100.00
2023-05-24T05:20:50.739Z,100.00
2023-05-24T05:25:54.727Z,100.00
2023-05-24T05:30:58.894Z,100.00
2023-05-24T05:36:04.384Z,100.00
2023-05-24T05:41:08.523Z,100.00
2023-05-24T05:46:15.199Z,100.00
2023-05-24T05:51:20.584Z,100.00
2023-05-24T05:56:24.513Z,100.00
2023-05-24T06:01:28.488Z,100.00
2023-05-24T06:06:33.784Z,100.00
2023-05-24T06:11:37.741Z,100.00
2023-05-24T06:16:43.594Z,100.00
2023-05-24T06:21:50.732Z,100.00
2023-05-24T06:26:54.806Z,100.00
2023-05-24T06:31:58.856Z,100.00
2023-05-24T06:37:04.783Z,100.00
2023-05-24T06:42:09.243Z,100.00
2023-05-24T06:47:22.397Z,100.00
2023-05-24T06:52:27.937Z,97.22
2023-05-24T06:57:31.869Z,100.00
2023-05-24T07:02:35.862Z,95.14
2023-05-24T07:07:42.442Z,97.64
2023-05-24T07:12:46.364Z,80.07
2023-05-24T07:17:50.332Z,80.54
2023-05-24T07:22:58.429Z,71.71
2023-05-24T07:28:02.590Z,82.70
2023-05-24T07:33:06.647Z,69.90
2023-05-24T07:38:12.024Z,77.81
2023-05-24T07:43:16.090Z,79.55
2023-05-24T07:48:20.409Z,84.30
2023-05-24T07:53:25.877Z,66.73
2023-05-24T07:58:29.851Z,76.16
2023-05-24T08:03:36.956Z,74.55
2023-05-24T08:08:42.471Z,73.40
2023-05-24T08:13:46.503Z,66.57
2023-05-24T08:18:52.610Z,63.96
2023-05-24T08:24:00.591Z,78.61
2023-05-24T08:29:05.155Z,68.81
2023-05-24T08:34:09.145Z,60.92
2023-05-24T08:39:14.579Z,65.16
2023-05-24T08:44:18.595Z,55.69
2023-05-24T08:49:22.715Z,53.81
2023-05-24T08:54:28.582Z,51.19
2023-05-24T08:59:32.606Z,45.51
2023-05-24T09:04:40.407Z,50.68
2023-05-24T09:09:51.176Z,52.37
2023-05-24T09:14:55.786Z,54.48
2023-05-24T09:20:00.985Z,47.39
2023-05-24T09:25:09.920Z,48.07
2023-05-24T09:30:14.537Z,49.86
2023-05-24T09:35:18.610Z,49.67
2023-05-24T09:40:24.816Z,56.35
2023-05-24T09:45:29.340Z,60.33
2023-05-24T09:50:33.547Z,57.73
2023-05-24T09:55:39.512Z,57.38
2023-05-24T10:00:44.078Z,60.85
2023-05-24T10:05:48.445Z,59.77
2023-05-24T10:10:54.662Z,61.56
2023-05-24T10:16:00.214Z,63.75
2023-05-24T10:21:11.317Z,55.26
2023-05-24T10:26:17.274Z,55.05
2023-05-24T10:31:26.938Z,53.59
2023-05-24T10:36:34.007Z,57.17
2023-05-24T10:41:42.521Z,61.10
2023-05-24T10:47:09.281Z,92.89
2023-05-24T10:52:13.848Z,100.00
2023-05-24T10:57:24.746Z,100.00
2023-05-24T11:02:30.037Z,100.00
2023-05-24T11:07:43.137Z,100.00
2023-05-24T11:12:58.603Z,100.00
2023-05-24T11:18:20.458Z,100.00
2023-05-24T11:23:24.772Z,100.00
2023-05-24T11:28:31.205Z,100.00
2023-05-24T11:33:35.230Z,100.00
2023-05-24T11:38:42.387Z,100.00
2023-05-24T11:43:48.022Z,100.00
2023-05-24T11:48:58.750Z,100.00
2023-05-24T11:54:03.027Z,100.00
2023-05-24T11:59:18.504Z,100.00
2023-05-24T12:04:22.776Z,100.00
2023-05-24T12:09:27.305Z,94.96
2023-05-24T12:14:34.979Z,100.00
2023-05-24T12:19:38.949Z,100.00
2023-05-24T12:24:43.900Z,78.59
2023-05-24T12:29:49.383Z,89.38
2023-05-24T12:34:58.454Z,100.00
2023-05-24T12:40:08.430Z,92.93
2023-05-24T12:45:14.080Z,100.00
2023-05-24T12:50:18.821Z,80.81
2023-05-24T12:55:24.368Z,76.97
2023-05-24T13:00:30.936Z,66.71
2023-05-24T13:05:36.555Z,73.13
2023-05-24T13:10:40.990Z,84.43
2023-05-24T13:15:46.465Z,64.15
2023-05-24T13:20:51.048Z,60.85
2023-05-24T13:25:55.146Z,62.91
2023-05-24T13:31:00.564Z,64.93
2023-05-24T13:36:04.586Z,70.03
2023-05-24T13:41:08.828Z,69.69
2023-05-24T13:46:14.437Z,66.80
2023-05-24T13:51:19.864Z,66.41
2023-05-24T13:56:25.567Z,71.03
2023-05-24T14:01:32.086Z,60.96
2023-05-24T14:06:37.901Z,61.60
2023-05-24T14:11:42.080Z,64.22
2023-05-24T14:16:51.855Z,66.57
2023-05-24T14:21:56.786Z,61.65
2023-05-24T14:27:01.613Z,55.30
2023-05-24T14:32:07.400Z,60.63
2023-05-24T14:37:11.487Z,61.48
2023-05-24T14:42:15.448Z,59.97
2023-05-24T14:47:46.662Z,59.95
2023-05-24T14:52:51.118Z,59.60
2023-05-24T14:57:57.642Z,61.00
2023-05-24T15:03:03.173Z,60.99
2023-05-24T15:08:08.008Z,60.10
2023-05-24T15:13:12.215Z,58.73
2023-05-24T15:18:20.801Z,64.52
2023-05-24T15:23:25.677Z,70.31
2023-05-24T15:28:29.771Z,57.24
2023-05-24T15:33:36.535Z,58.28
2023-05-24T15:38:42.703Z,61.18
2023-05-24T15:43:46.750Z,56.55
2023-05-24T15:48:52.154Z,56.88
2023-05-24T15:53:57.733Z,58.20
2023-05-24T15:59:01.813Z,57.84
2023-05-24T16:04:07.218Z,59.61
2023-05-24T16:09:11.297Z,62.26
2023-05-24T16:14:15.775Z,66.22
2023-05-24T16:19:21.577Z,65.29
2023-05-24T16:24:25.791Z,67.78
2023-05-24T16:29:30.480Z,72.83
2023-05-24T16:34:54.985Z,72.41
2023-05-24T16:40:00.425Z,77.53
2023-05-24T16:45:04.639Z,85.87
2023-05-24T16:50:14.957Z,87.67
2023-05-24T16:55:19.371Z,93.02
2023-05-24T17:00:23.524Z,94.25
2023-05-24T17:05:28.991Z,100.00
2023-05-24T17:10:33.309Z,100.00
2023-05-24T17:15:37.282Z,100.00
2023-05-24T17:20:42.817Z,100.00
2023-05-24T17:25:47.008Z,100.00
2023-05-24T17:30:50.934Z,100.00
2023-05-24T17:35:57.727Z,100.00
2023-05-24T17:41:01.677Z,100.00
2023-05-24T17:46:07.468Z,100.00
2023-05-24T17:51:15.246Z,100.00
2023-05-24T17:56:19.185Z,100.00
2023-05-24T18:01:23.783Z,100.00
2023-05-24T18:06:34.241Z,100.00
2023-05-24T18:11:38.308Z,100.00
2023-05-24T18:16:52.900Z,100.00
2023-05-24T18:21:58.392Z,100.00
2023-05-24T18:27:02.713Z,100.00
2023-05-24T18:32:06.804Z,100.00
2023-05-24T18:37:12.190Z,100.00
2023-05-24T18:42:16.325Z,100.00
2023-05-24T18:47:20.688Z,100.00
2023-05-24T18:52:26.231Z,100.00
2023-05-24T18:57:33.755Z,100.00
2023-05-24T19:02:39.223Z,100.00
2023-05-24T19:07:44.966Z,100.00
2023-05-24T19:12:48.991Z,100.00
2023-05-24T19:17:55.600Z,100.00
2023-05-24T19:23:01.103Z,100.00
2023-05-24T19:28:05.099Z,100.00
2023-05-24T19:33:12.277Z,100.00
2023-05-24T19:38:18.044Z,100.00
2023-05-24T19:43:22.128Z,100.00
2023-05-24T19:48:26.130Z,100.00
2023-05-24T19:53:31.534Z,100.00
2023-05-24T19:58:35.856Z,100.00
2023-05-24T20:03:39.972Z,100.00
2023-05-24T20:08:45.782Z,100.00
2023-05-24T20:13:52.551Z,100.00
2023-05-24T20:18:56.579Z,100.00
2023-05-24T20:24:02.193Z,100.00
2023-05-24T20:29:08.054Z,100.00
2023-05-24T20:34:12.226Z,100.00
2023-05-24T20:39:19.087Z,100.00
2023-05-24T20:44:25.114Z,100.00
2023-05-24T20:49:29.151Z,100.00
2023-05-24T20:54:36.038Z,100.00
2023-05-24T20:59:40.028Z,100.00
2023-05-24T21:04:44.129Z,100.00
2023-05-24T21:09:49.770Z,100.00
2023-05-24T21:14:58.153Z,100.00
2023-05-24T21:20:02.302Z,100.00
2023-05-24T21:25:09.994Z,100.00
2023-05-24T21:30:15.104Z,100.00
2023-05-24T21:35:19.072Z,100.00
2023-05-24T21:40:24.411Z,100.00
2023-05-24T21:45:28.618Z,100.00
2023-05-24T21:50:36.116Z,100.00
2023-05-24T21:55:41.539Z,100.00
2023-05-24T22:00:45.818Z,100.00
2023-05-24T22:05:51.104Z,100.00
2023-05-24T22:10:58.110Z,100.00
2023-05-24T22:16:02.163Z,100.00
2023-05-24T22:21:06.298Z,100.00
2023-05-24T22:26:11.752Z,100.00
2023-05-24T22:31:15.840Z,100.00
2023-05-24T22:36:24.124Z,100.00
2023-05-24T22:41:29.660Z,100.00
2023-05-24T22:46:33.738Z,100.00
2023-05-24T22:51:37.814Z,100.00
2023-05-24T22:56:43.284Z,100.00
2023-05-24T23:01:47.373Z,100.00
2023-05-24T23:06:53.543Z,100.00
2023-05-24T23:11:59.068Z,100.00
2023-05-24T23:17:03.062Z,100.00
2023-05-24T23:22:07.051Z,100.00
2023-05-24T23:27:12.625Z,100.00
2023-05-24T23:32:16.583Z,100.00
2023-05-24T23:37:20.582Z,100.00
2023-05-24T23:42:26.436Z,100.00
2023-05-24T23:47:30.536Z,100.00
2023-05-24T23:52:36.159Z,100.00
2023-05-24T23:57:42.179Z,100.00
